Fort Flagler, Washington
Current Conditions -  °F | °C
As of 7:56 AM on Saturday 20 Dec 2014 (Local Time) from KNUW Reporting Station
Overcast Overcast  
Wind Chill: 50°   Ceiling: 4200
Heat Index: 50°   Visibility: 10mi
Dew Point: 40°   Wind: 24mph
Humidity: 68%   Direction: 120°ESE
Pressure: 29.59"   Gusts: 40mph
Location:  48.0545°N, 122.706°W
Report Text: KNUW 201556Z 12021G35KT 10SM SCT030 BKN042 OVC080 10/04 A2959 RMK AO2 PK WND 12035/1547 SLP023 T01000044 VISNO E $
Loading
Personal Weather Stations






























Interactive Weather Map New forecast layout! Learn more

10-Day Weather Forecast

Advertisements
Track Severe Weather on mobile